Time;durP1;ratioP1;P1;durP2;ratioP2;P2;SDS_P1;SDS_P2;PMS_P1;PMS_P2;Temp;Humidity;BMP_temperature;BMP_pressure;BME280_temperature;BME280_humidity;BME280_pressure;Samples;Min_cycle;Max_cycle;Signal;HPM_P1;HPM_P2
2022/08/01 00:01:23;;;;;;;;;1.00;1.00;;;;;24.76;48.21;101592.06;5079035;27;73345;-55
2022/08/01 00:03:48;;;;;;;;;0.00;0.00;;;;;24.80;48.49;101597.16;5079687;27;68351;-55
2022/08/01 00:06:13;;;;;;;;;1.00;1.00;;;;;24.81;48.29;101594.31;5080545;27;45290;-53
2022/08/01 00:08:39;;;;;;;;;2.00;0.00;;;;;24.81;48.78;101588.00;5080020;27;54415;-52
2022/08/01 00:11:04;;;;;;;;;1.00;1.00;;;;;24.80;48.70;101598.03;5079488;27;70132;-55
2022/08/01 00:13:30;;;;;;;;;1.00;1.00;;;;;24.80;48.66;101595.34;5080087;27;62992;-55
2022/08/01 00:15:55;;;;;;;;;0.00;0.00;;;;;24.81;48.63;101597.06;5079860;28;45532;-54
2022/08/01 00:18:21;;;;;;;;;0.00;0.00;;;;;24.81;48.37;101591.59;5062863;28;45555;-54
2022/08/01 00:20:46;;;;;;;;;0.33;0.33;;;;;24.82;48.18;101590.56;5079115;28;45418;-52
2022/08/01 00:23:12;;;;;;;;;0.00;0.00;;;;;24.84;48.30;101591.28;5078867;27;45702;-51
2022/08/01 00:25:37;;;;;;;;;0.00;0.00;;;;;24.83;48.55;101584.13;5082881;27;57142;-50
2022/08/01 00:28:03;;;;;;;;;2.00;0.00;;;;;24.82;48.13;101579.69;5082689;27;46012;-53
2022/08/01 00:30:28;;;;;;;;;0.00;0.00;;;;;24.79;48.15;101582.72;5083984;27;45611;-54
2022/08/01 00:32:53;;;;;;;;;0.00;0.00;;;;;24.77;48.53;101580.16;5083246;27;64919;-53
2022/08/01 00:35:19;;;;;;;;;0.00;0.00;;;;;24.77;48.23;101571.16;5083329;28;44752;-55
2022/08/01 00:37:44;;;;;;;;;0.00;0.00;;;;;24.75;48.46;101568.56;5083793;28;46074;-54
2022/08/01 00:40:10;;;;;;;;;0.00;0.00;;;;;24.72;48.71;101574.31;5082785;28;46035;-54
2022/08/01 00:42:35;;;;;;;;;0.00;0.00;;;;;24.71;48.60;101572.59;5083706;27;45464;-54
2022/08/01 00:45:01;;;;;;;;;0.00;0.00;;;;;24.68;48.51;101567.47;5081040;27;68502;-54
2022/08/01 00:47:26;;;;;;;;;2.00;0.00;;;;;24.66;48.67;101564.03;5082441;27;67665;-54
2022/08/01 00:49:51;;;;;;;;;0.00;0.00;;;;;24.64;48.61;101562.47;5081368;27;71102;-53
2022/08/01 00:52:17;;;;;;;;;0.00;0.00;;;;;24.63;48.85;101566.16;5080402;28;61989;-52
2022/08/01 00:54:43;;;;;;;;;0.00;0.00;;;;;24.60;48.64;101568.19;5082137;27;61866;-53
2022/08/01 00:57:10;;;;;;;;;0.00;0.00;;;;;24.59;48.32;101565.63;5082223;27;58883;-52
2022/08/01 00:59:36;;;;;;;;;0.00;0.00;;;;;24.57;48.18;101562.19;5082774;27;45367;-49
2022/08/01 01:02:01;;;;;;;;;0.00;0.00;;;;;24.55;48.94;101561.50;5082607;27;45279;-55
2022/08/01 01:04:27;;;;;;;;;0.00;0.00;;;;;24.53;48.53;101556.19;5082178;27;66168;-54
2022/08/01 01:07:17;;;;;;;;;0.00;0.00;;;;;24.53;48.53;101564.34;5082344;27;50110;-53
2022/08/01 01:10:04;;;;;;;;;0.00;0.00;;;;;24.52;49.02;101570.81;5082895;27;45280;-54
2022/08/01 01:12:36;;;;;;;;;0.00;0.00;;;;;24.52;48.90;101567.22;5082633;27;45496;-51
2022/08/01 01:15:08;;;;;;;;;0.00;0.00;;;;;24.51;49.12;101566.38;5082834;27;45330;-52
2022/08/01 01:17:39;;;;;;;;;0.00;0.00;;;;;24.48;48.84;101561.22;5081430;28;46472;-52
2022/08/01 01:20:06;;;;;;;;;0.00;0.00;;;;;24.48;49.14;101557.66;5082421;27;45341;-51
2022/08/01 01:22:53;;;;;;;;;0.00;0.00;;;;;24.46;49.00;101557.81;5082162;27;45458;-51
2022/08/01 01:25:36;;;;;;;;;0.00;0.00;;;;;24.45;49.23;101556.94;5074707;28;45387;-54
2022/08/01 01:28:12;;;;;;;;;0.00;0.00;;;;;24.46;49.03;101555.09;5082471;27;46557;-54
2022/08/01 01:30:38;;;;;;;;;0.00;0.00;;;;;24.44;49.09;101559.81;5079805;28;45612;-52
2022/08/01 01:33:07;;;;;;;;;0.00;0.00;;;;;24.44;49.20;101554.38;5080677;28;55937;-51
2022/08/01 01:35:34;;;;;;;;;0.00;0.00;;;;;24.42;49.04;101557.25;5080368;28;45264;-52
2022/08/01 01:38:17;;;;;;;;;0.00;0.00;;;;;24.42;48.98;101556.41;5080925;28;46286;-53
2022/08/01 01:40:44;;;;;;;;;0.00;0.00;;;;;24.41;49.36;101554.69;5097787;27;45367;-53
2022/08/01 01:43:11;;;;;;;;;0.00;0.00;;;;;24.39;49.26;101554.84;5080912;28;45571;-55
2022/08/01 01:45:37;;;;;;;;;0.00;0.00;;;;;24.37;49.33;101554.13;5080766;28;45399;-51
2022/08/01 01:48:03;;;;;;;;;1.00;1.00;;;;;24.34;48.90;101550.84;5080896;28;47219;-54
2022/08/01 01:50:29;;;;;;;;;0.00;0.00;;;;;24.30;49.25;101547.59;5081725;27;45480;-51
2022/08/01 01:52:55;;;;;;;;;0.00;0.00;;;;;24.29;49.62;101556.75;5081546;27;45274;-55
2022/08/01 01:55:22;;;;;;;;;0.00;0.00;;;;;24.28;49.68;101552.31;5080322;28;55103;-50
2022/08/01 01:57:48;;;;;;;;;0.00;0.00;;;;;24.27;49.63;101548.75;5080740;27;45342;-53
2022/08/01 02:00:14;;;;;;;;;0.00;0.00;;;;;24.26;49.77;101554.31;5079836;28;67653;-54
2022/08/01 02:02:40;;;;;;;;;0.00;0.00;;;;;24.26;49.47;101551.59;5080904;28;45424;-52
2022/08/01 02:05:08;;;;;;;;;0.00;0.00;;;;;24.24;50.17;101549.03;5080870;28;45280;-54
2022/08/01 02:07:34;;;;;;;;;0.67;0.67;;;;;24.25;50.08;101555.34;5081230;27;45402;-54
2022/08/01 02:10:03;;;;;;;;;2.00;1.00;;;;;24.26;49.66;101552.47;5080305;28;45291;-51
2022/08/01 02:12:33;;;;;;;;;1.00;1.00;;;;;24.28;49.97;101546.88;5080125;27;45410;-54
2022/08/01 02:15:00;;;;;;;;;0.00;0.00;;;;;24.31;49.96;101551.16;5079487;28;45673;-55
2022/08/01 02:17:26;;;;;;;;;0.00;0.00;;;;;24.31;49.96;101548.44;5081001;27;46176;-55
2022/08/01 02:19:52;;;;;;;;;0.00;0.00;;;;;24.29;50.36;101548.59;5068082;28;68496;-53
2022/08/01 02:22:29;;;;;;;;;0.00;0.00;;;;;24.32;50.45;101544.72;5079845;28;45372;-56
2022/08/01 02:25:05;;;;;;;;;0.00;0.00;;;;;24.30;50.40;101546.72;5080597;28;45414;-53
2022/08/01 02:27:40;;;;;;;;;0.00;0.00;;;;;24.28;50.36;101546.88;5079449;28;45896;-51
2022/08/01 02:30:08;;;;;;;;;0.00;0.00;;;;;24.27;50.72;101548.75;5081329;27;45440;-55
2022/08/01 02:32:37;;;;;;;;;0.00;0.00;;;;;24.28;50.32;101544.16;5081411;28;45374;-53
2022/08/01 02:35:07;;;;;;;;;0.00;0.00;;;;;24.26;50.62;101543.44;5080341;28;45259;-54
2022/08/01 02:37:34;;;;;;;;;0.00;0.00;;;;;24.26;50.48;101547.03;5077364;28;46212;-53
2022/08/01 02:40:00;;;;;;;;;2.00;0.00;;;;;24.26;50.76;101547.03;5078704;28;45495;-50
2022/08/01 02:42:28;;;;;;;;;0.00;0.00;;;;;24.25;50.60;101553.47;5079499;27;45668;-53
2022/08/01 02:44:54;;;;;;;;;0.00;0.00;;;;;24.25;50.39;101550.75;5081264;27;45464;-54
2022/08/01 02:47:20;;;;;;;;;2.00;1.00;;;;;24.25;50.78;101549.91;5078359;28;66361;-53
2022/08/01 02:49:47;;;;;;;;;0.00;0.00;;;;;24.24;50.31;101548.19;5079451;28;45343;-52
2022/08/01 02:52:15;;;;;;;;;0.00;0.00;;;;;24.24;50.60;101549.03;5079309;28;45529;-52
2022/08/01 02:54:42;;;;;;;;;0.00;0.00;;;;;24.19;50.61;101545.91;5080162;28;45557;-50
2022/08/01 02:57:08;;;;;;;;;0.00;0.00;;;;;24.18;50.93;101544.19;5080055;27;46358;-52
2022/08/01 02:59:37;;;;;;;;;0.00;0.00;;;;;24.20;50.68;101544.06;5080839;27;45382;-53
2022/08/01 03:02:04;;;;;;;;;0.00;0.00;;;;;24.19;50.87;101542.34;5067214;28;45537;-53
2022/08/01 03:04:33;;;;;;;;;1.33;0.33;;;;;24.16;50.77;101546.19;5074907;28;45479;-51
2022/08/01 03:07:00;;;;;;;;;0.67;0.33;;;;;24.13;51.36;101541.03;5079222;28;46423;-53
2022/08/01 03:09:27;;;;;;;;;0.00;0.00;;;;;24.11;50.90;101537.63;5080475;28;45532;-51
2022/08/01 03:11:53;;;;;;;;;0.00;0.00;;;;;24.10;51.41;101533.19;5079496;28;45370;-54
2022/08/01 03:14:20;;;;;;;;;0.00;0.00;;;;;24.08;51.32;101536.06;5079519;28;45513;-54
2022/08/01 03:16:46;;;;;;;;;1.00;1.00;;;;;24.09;51.47;101536.91;5079907;27;51820;-50
2022/08/01 03:19:12;;;;;;;;;0.00;0.00;;;;;24.06;51.05;101538.06;5078674;28;45272;-51
2022/08/01 03:21:39;;;;;;;;;0.00;0.00;;;;;23.97;51.59;101543.53;5079107;28;45375;-54
2022/08/01 03:24:05;;;;;;;;;0.00;0.00;;;;;23.91;51.78;101545.84;5079012;28;45233;-54
2022/08/01 03:26:32;;;;;;;;;0.00;0.00;;;;;23.89;51.97;101547.81;5079094;28;45874;-52
2022/08/01 03:29:09;;;;;;;;;0.33;0.33;;;;;23.89;51.95;101541.53;5080153;28;45384;-54
2022/08/01 03:31:36;;;;;;;;;1.00;0.00;;;;;23.86;51.88;101547.25;5078947;28;46724;-53
2022/08/01 03:34:02;;;;;;;;;1.00;0.00;;;;;23.86;51.98;101548.09;5080405;27;45253;-55
2022/08/01 03:36:28;;;;;;;;;0.00;0.00;;;;;23.88;52.26;101545.22;5080077;27;46299;-54
2022/08/01 03:38:56;;;;;;;;;0.00;0.00;;;;;23.88;51.99;101542.53;5079943;27;45163;-51
2022/08/01 03:41:24;;;;;;;;;0.67;0.00;;;;;23.89;51.77;101544.25;5079733;27;45326;-55
2022/08/01 03:43:58;;;;;;;;;0.00;0.00;;;;;23.89;51.63;101538.81;5095087;27;45283;-56
2022/08/01 03:46:36;;;;;;;;;0.00;0.00;;;;;23.91;51.79;101539.53;5078467;28;47176;-56
2022/08/01 03:49:06;;;;;;;;;0.00;0.00;;;;;23.92;52.00;101542.13;5080286;27;45234;-52
2022/08/01 03:51:32;;;;;;;;;0.00;0.00;;;;;23.92;51.63;101544.84;5077734;28;45466;-55
2022/08/01 03:54:00;;;;;;;;;0.00;0.00;;;;;23.91;51.67;101540.41;5078838;28;48025;-56
2022/08/01 03:56:27;;;;;;;;;0.00;0.00;;;;;23.87;51.77;101551.66;5078108;27;45406;-56
2022/08/01 03:58:53;;;;;;;;;0.00;0.00;;;;;23.83;52.10;101548.41;5079260;28;72784;-55
2022/08/01 04:01:19;;;;;;;;;0.00;0.00;;;;;23.84;51.90;101550.09;5082738;28;45319;-52
2022/08/01 04:03:45;;;;;;;;;0.67;0.67;;;;;23.85;52.28;101550.97;5080193;28;45352;-52
2022/08/01 04:06:10;;;;;;;;;0.00;0.00;;;;;23.86;51.91;101545.38;5081524;28;46090;-55
2022/08/01 04:08:37;;;;;;;;;0.00;0.00;;;;;23.87;52.14;101549.81;5082312;27;54359;-52
2022/08/01 04:11:03;;;;;;;;;2.00;0.00;;;;;23.88;51.88;101547.94;5082969;28;45512;-53
2022/08/01 04:13:30;;;;;;;;;0.00;0.00;;;;;23.87;52.11;101547.09;5083795;28;45457;-54
2022/08/01 04:15:55;;;;;;;;;0.00;0.00;;;;;23.86;51.79;101539.94;5082690;27;45518;-54
2022/08/01 04:18:21;;;;;;;;;0.00;0.00;;;;;23.81;52.18;101534.09;5082899;27;45237;-54
2022/08/01 04:20:46;;;;;;;;;0.00;0.00;;;;;23.78;52.20;101532.53;5082694;27;64186;-55
2022/08/01 04:23:14;;;;;;;;;0.67;0.67;;;;;23.78;52.21;101523.53;5083052;27;45481;-55
2022/08/01 04:25:40;;;;;;;;;0.00;0.00;;;;;23.78;52.24;101521.66;5077582;28;46893;-54
2022/08/01 04:28:07;;;;;;;;;0.00;0.00;;;;;23.78;52.27;101532.53;5081603;28;48495;-53
2022/08/01 04:30:34;;;;;;;;;0.00;0.00;;;;;23.79;52.33;101530.66;5082646;27;45382;-53
2022/08/01 04:33:01;;;;;;;;;0.00;0.00;;;;;23.76;52.46;101523.66;5098492;27;49495;-55
2022/08/01 04:35:27;;;;;;;;;1.00;1.00;;;;;23.75;52.22;101526.53;5082403;28;45297;-56
2022/08/01 04:37:53;;;;;;;;;0.00;0.00;;;;;23.72;52.37;101522.25;5080743;28;45230;-56
2022/08/01 04:40:21;;;;;;;;;0.00;0.00;;;;;23.70;52.73;101523.41;5080435;28;64701;-53
2022/08/01 04:42:48;;;;;;;;;0.00;0.00;;;;;23.69;52.66;101527.97;5081041;28;45641;-55
2022/08/01 04:45:14;;;;;;;;;0.00;0.00;;;;;23.69;52.55;101527.97;5081320;28;46164;-53
2022/08/01 04:47:40;;;;;;;;;0.00;0.00;;;;;23.67;52.94;101529.97;5081031;28;45288;-54
2022/08/01 04:50:09;;;;;;;;;0.00;0.00;;;;;23.67;52.56;101529.13;5081760;28;45362;-55
2022/08/01 04:52:35;;;;;;;;;0.00;0.00;;;;;23.64;53.23;101529.44;5080326;28;45244;-55
2022/08/01 04:55:01;;;;;;;;;0.33;0.33;;;;;23.58;53.11;101539.88;5082494;27;46199;-54
2022/08/01 04:57:27;;;;;;;;;0.00;0.00;;;;;23.56;52.97;101547.28;5082665;27;45483;-53
2022/08/01 04:59:56;;;;;;;;;0.00;0.00;;;;;23.53;52.61;101546.72;5081796;27;46838;-53
2022/08/01 05:02:22;;;;;;;;;0.00;0.00;;;;;23.49;53.04;101546.13;5082337;27;45235;-53
2022/08/01 05:04:47;;;;;;;;;0.00;0.00;;;;;23.47;52.97;101550.88;5081754;27;46115;-56
2022/08/01 05:07:13;;;;;;;;;0.00;0.00;;;;;23.43;53.29;101555.72;5082170;27;45157;-55
2022/08/01 05:09:41;;;;;;;;;1.00;1.00;;;;;23.38;53.69;101560.72;5081644;28;45480;-54
2022/08/01 05:12:07;;;;;;;;;0.00;0.00;;;;;23.31;53.82;101556.88;5082012;27;45393;-54
2022/08/01 05:14:33;;;;;;;;;0.00;0.00;;;;;23.33;54.18;101560.28;5082215;27;45701;-52
2022/08/01 05:16:59;;;;;;;;;0.00;0.00;;;;;23.33;53.71;101571.13;5082358;27;45330;-51
2022/08/01 05:19:25;;;;;;;;;1.00;1.00;;;;;23.37;54.14;101574.44;5081169;28;45334;-51
2022/08/01 05:21:50;;;;;;;;;0.67;0.67;;;;;23.35;53.81;101571.00;5082465;27;45513;-54
2022/08/01 05:24:15;;;;;;;;;0.00;0.00;;;;;23.36;53.85;101575.44;5082690;27;45222;-52
2022/08/01 05:26:41;;;;;;;;;0.67;0.67;;;;;23.38;53.69;101571.56;5081620;27;65866;-54
2022/08/01 05:29:06;;;;;;;;;0.33;0.33;;;;;23.42;53.72;101564.84;5082229;28;45579;-52
2022/08/01 05:31:34;;;;;;;;;3.00;0.67;;;;;23.42;53.63;101566.72;5081645;28;55168;-54
2022/08/01 05:34:03;;;;;;;;;0.00;0.00;;;;;23.40;53.33;101566.00;5081198;28;46175;-53
2022/08/01 05:36:29;;;;;;;;;2.00;1.00;;;;;23.39;53.96;101572.44;5082261;27;45340;-52
2022/08/01 05:38:54;;;;;;;;;0.00;0.00;;;;;23.36;53.84;101568.16;5082395;27;45310;-50
2022/08/01 05:41:20;;;;;;;;;0.00;0.00;;;;;23.34;53.66;101566.59;5082484;27;45334;-54
2022/08/01 05:43:45;;;;;;;;;0.00;0.00;;;;;23.36;53.56;101570.88;5081448;27;70798;-51
2022/08/01 05:46:10;;;;;;;;;0.00;0.00;;;;;23.37;53.54;101567.13;5081370;27;69019;-53
2022/08/01 05:48:36;;;;;;;;;0.00;0.00;;;;;23.41;53.74;101582.16;5080290;27;66082;-52
2022/08/01 05:51:02;;;;;;;;;0.00;0.00;;;;;23.43;53.53;101574.72;5082196;27;45397;-55
2022/08/01 05:53:28;;;;;;;;;0.33;0.33;;;;;23.44;53.28;101576.44;5072230;27;46385;-51
2022/08/01 05:55:53;;;;;;;;;0.00;0.00;;;;;23.43;53.65;101572.00;5079580;28;45290;-51
2022/08/01 05:58:18;;;;;;;;;4.00;1.00;;;;;23.47;53.43;101578.00;5079666;27;61809;-54
2022/08/01 06:00:44;;;;;;;;;0.00;0.00;;;;;23.53;53.35;101579.28;5080094;27;45265;-54
2022/08/01 06:03:11;;;;;;;;;0.00;0.00;;;;;23.58;53.26;101575.16;5078667;28;75112;-53
2022/08/01 06:05:36;;;;;;;;;0.00;0.00;;;;;23.63;53.11;101574.72;5078088;27;45819;-52
2022/08/01 06:08:01;;;;;;;;;1.67;0.67;;;;;23.70;52.91;101583.13;5080094;27;45414;-53
2022/08/01 06:10:27;;;;;;;;;0.00;0.00;;;;;23.73;52.92;101578.28;5078507;27;45415;-51
2022/08/01 06:12:52;;;;;;;;;1.00;1.00;;;;;23.78;52.71;101580.56;5078118;27;69977;-53
2022/08/01 06:15:17;;;;;;;;;1.00;1.00;;;;;23.73;52.66;101580.16;5078586;27;71268;-54
2022/08/01 06:17:43;;;;;;;;;0.67;0.00;;;;;23.71;53.00;101576.72;5079066;27;68354;-51
2022/08/01 06:20:09;;;;;;;;;1.00;0.00;;;;;23.69;52.84;101571.44;5080750;27;45407;-51
2022/08/01 06:22:34;;;;;;;;;1.00;1.00;;;;;23.68;52.61;101583.28;5076482;28;48306;-52
2022/08/01 06:24:59;;;;;;;;;0.00;0.00;;;;;23.63;52.80;101582.84;5065962;28;48489;-52
2022/08/01 06:27:25;;;;;;;;;0.00;0.00;;;;;23.64;52.75;101587.28;5077776;27;45362;-53
2022/08/01 06:29:53;;;;;;;;;1.00;1.00;;;;;23.67;52.69;101578.00;5079942;27;45425;-52
2022/08/01 06:32:19;;;;;;;;;0.00;0.00;;;;;23.72;52.52;101579.28;5079190;27;47008;-53
2022/08/01 06:34:44;;;;;;;;;0.67;0.67;;;;;23.80;52.54;101584.00;5079417;27;45319;-53
2022/08/01 06:37:09;;;;;;;;;0.00;0.00;;;;;23.82;52.46;101576.56;5078752;27;66993;-52
2022/08/01 06:39:35;;;;;;;;;0.00;0.00;;;;;23.88;52.17;101585.97;5078364;27;45826;-54
2022/08/01 06:42:00;;;;;;;;;0.00;0.00;;;;;23.89;52.17;101582.25;5079606;27;45961;-53
2022/08/01 06:44:25;;;;;;;;;0.00;0.00;;;;;23.87;52.26;101586.97;5078584;28;64434;-55
2022/08/01 06:46:51;;;;;;;;;1.00;1.00;;;;;23.87;51.95;101582.41;5079994;27;45432;-54
2022/08/01 06:49:16;;;;;;;;;1.67;1.33;;;;;23.87;52.22;101581.53;5078969;28;62947;-54
2022/08/01 06:51:41;;;;;;;;;2.00;0.00;;;;;23.87;52.41;101585.13;5078470;27;53768;-54
2022/08/01 06:54:07;;;;;;;;;1.00;1.00;;;;;23.88;51.99;101591.41;5078410;28;45287;-53
2022/08/01 06:56:34;;;;;;;;;1.00;1.00;;;;;23.89;52.20;101591.25;5078211;27;62991;-54
2022/08/01 06:59:00;;;;;;;;;1.67;0.67;;;;;23.89;52.26;101588.53;5078746;27;45359;-51
2022/08/01 07:01:28;;;;;;;;;1.00;1.00;;;;;23.89;52.06;101587.69;5078124;27;46378;-54
2022/08/01 07:03:53;;;;;;;;;1.00;1.00;;;;;23.90;52.39;101586.72;5078784;27;45457;-50
2022/08/01 07:06:19;;;;;;;;;1.33;1.33;;;;;23.89;52.14;101579.56;5079292;27;45285;-51
2022/08/01 07:08:44;;;;;;;;;1.00;1.00;;;;;23.95;52.42;101581.72;5079374;28;45947;-45
2022/08/01 07:11:09;;;;;;;;;3.00;2.00;;;;;24.02;52.25;101582.84;5076652;27;70515;-51
2022/08/01 07:13:34;;;;;;;;;1.00;1.00;;;;;24.12;51.89;101585.53;5076592;27;69547;-51
2022/08/01 07:16:00;;;;;;;;;2.00;2.00;;;;;24.23;51.88;101579.06;5074747;27;64347;-51
2022/08/01 07:18:25;;;;;;;;;1.00;1.00;;;;;24.31;51.39;101584.63;5074734;27;70258;-53
2022/08/01 07:20:51;;;;;;;;;4.00;4.00;;;;;24.39;51.70;101590.19;5075607;27;45512;-51
2022/08/01 07:23:16;;;;;;;;;2.00;2.00;;;;;24.44;50.97;101596.03;5077917;28;45357;-52
2022/08/01 07:25:42;;;;;;;;;2.67;2.00;;;;;24.43;51.30;101593.44;5077484;27;63434;-52
2022/08/01 07:28:07;;;;;;;;;2.33;2.33;;;;;24.47;51.27;101588.56;5079137;27;45571;-51
2022/08/01 07:30:33;;;;;;;;;4.00;4.00;;;;;24.48;50.95;101602.00;5075224;27;46250;-51
2022/08/01 07:32:58;;;;;;;;;2.33;2.33;;;;;24.46;51.17;101595.88;5077313;27;45338;-51
2022/08/01 07:35:24;;;;;;;;;3.00;3.00;;;;;24.48;50.87;101603.88;5076106;28;45340;-53
2022/08/01 07:37:49;;;;;;;;;3.00;3.00;;;;;24.50;50.72;101601.88;5076976;28;57698;-48
2022/08/01 07:40:15;;;;;;;;;3.00;3.00;;;;;24.51;50.66;101606.28;5078390;27;45437;-48
2022/08/01 07:42:43;;;;;;;;;3.00;3.00;;;;;24.50;50.17;101600.00;5076944;27;45251;-51
2022/08/01 07:45:09;;;;;;;;;3.33;3.00;;;;;24.44;50.64;101606.03;5077350;27;45296;-51
2022/08/01 07:47:35;;;;;;;;;3.00;3.00;;;;;24.34;50.61;101616.09;5077617;27;45297;-50
2022/08/01 07:50:01;;;;;;;;;2.67;2.33;;;;;24.31;50.48;101614.50;5077614;27;45974;-52
2022/08/01 07:52:27;;;;;;;;;6.00;4.00;;;;;24.34;50.73;101606.09;5076769;27;45428;-52
2022/08/01 07:54:52;;;;;;;;;4.00;4.00;;;;;24.29;50.40;101616.53;5077537;27;45522;-51
2022/08/01 07:57:17;;;;;;;;;7.67;6.00;;;;;24.30;50.75;101615.53;5077498;27;45291;-46
2022/08/01 07:59:43;;;;;;;;;6.00;6.00;;;;;24.38;50.96;101606.63;5076535;27;45399;-45
2022/08/01 08:02:08;;;;;;;;;5.00;5.00;;;;;24.53;50.40;101616.00;5075059;27;73091;-45
2022/08/01 08:04:34;;;;;;;;;5.33;5.33;;;;;24.63;50.45;101618.75;5077151;27;45624;-45
2022/08/01 08:06:59;;;;;;;;;5.33;5.33;;;;;24.71;50.07;101615.28;5075592;27;45357;-47
2022/08/01 08:09:24;;;;;;;;;5.67;5.67;;;;;24.96;49.86;101616.44;5071747;27;69872;-43
2022/08/01 08:11:50;;;;;;;;;5.33;5.33;;;;;25.32;48.97;101627.38;5075796;27;67223;-49
2022/08/01 08:14:16;;;;;;;;;5.00;5.00;;;;;25.61;48.89;101620.03;5075637;27;67607;-48
2022/08/01 08:16:42;;;;;;;;;4.00;4.00;;;;;25.91;48.04;101616.03;5077558;27;45287;-47
2022/08/01 08:19:07;;;;;;;;;4.00;4.00;;;;;26.29;48.31;101618.56;5078146;27;46299;-49
2022/08/01 08:21:32;;;;;;;;;6.00;6.00;;;;;27.36;47.40;101611.66;5076278;27;57843;-47
2022/08/01 08:26:42;;;;;;;;;3.67;3.67;;;;;30.66;40.86;101612.88;5073292;27;45432;-46
2022/08/01 08:29:07;;;;;;;;;4.00;3.00;;;;;32.65;39.17;101605.84;5073471;28;45451;-46
2022/08/01 08:31:33;;;;;;;;;6.33;4.67;;;;;32.91;37.68;101618.06;5071764;27;60209;-48
2022/08/01 08:33:58;;;;;;;;;3.00;3.00;;;;;32.21;35.46;101617.25;5075516;28;45559;-48
2022/08/01 08:36:24;;;;;;;;;6.33;4.67;;;;;31.82;37.56;101613.94;5074635;27;45503;-44
2022/08/01 08:38:49;;;;;;;;;4.33;3.67;;;;;32.60;36.94;101615.78;5076734;27;46663;-45
2022/08/01 08:41:15;;;;;;;;;5.33;5.33;;;;;33.77;35.20;101607.47;5074835;27;45479;-46
2022/08/01 08:43:41;;;;;;;;;0.67;0.67;;;;;34.57;33.73;101610.13;5070257;27;61154;-46
2022/08/01 08:46:08;;;;;;;;;5.67;4.00;;;;;35.47;33.61;101597.38;5073224;27;63624;-50
2022/08/01 08:48:34;;;;;;;;;5.67;5.33;;;;;35.77;31.83;101602.25;5074882;27;46757;-48
2022/08/01 08:51:00;;;;;;;;;3.00;2.00;;;;;35.67;31.76;101608.31;5073507;28;45833;-46
2022/08/01 08:53:26;;;;;;;;;4.00;4.00;;;;;35.35;31.10;101605.56;5076430;27;45615;-57
2022/08/01 08:55:51;;;;;;;;;3.00;3.00;;;;;34.42;31.46;101602.13;5076349;27;45845;-57
2022/08/01 08:58:18;;;;;;;;;2.00;2.00;;;;;33.47;32.10;101597.69;5094421;27;46617;-58
2022/08/01 09:00:43;;;;;;;;;3.00;2.00;;;;;32.71;32.77;101597.81;5078925;28;45358;-58
2022/08/01 09:03:08;;;;;;;;;4.33;3.00;;;;;32.08;33.76;101595.97;5080072;27;68128;-58
2022/08/01 09:05:34;;;;;;;;;4.33;4.33;;;;;31.58;34.39;101605.03;5080450;27;45457;-58
2022/08/01 09:07:59;;;;;;;;;2.67;2.67;;;;;31.16;34.70;101607.56;5080711;27;60905;-57
2022/08/01 09:10:25;;;;;;;;;2.00;1.00;;;;;30.77;35.75;101603.28;5079589;27;72826;-58
2022/08/01 09:13:05;;;;;;;;;6.00;4.00;;;;;30.43;36.52;101612.94;5080605;27;45359;-58
2022/08/01 09:15:49;;;;;;;;;3.33;3.33;;;;;30.06;36.79;101611.94;5080342;28;45326;-57
2022/08/01 09:18:33;;;;;;;;;2.00;2.00;;;;;29.71;36.72;101614.28;5081647;27;46105;-58
2022/08/01 09:21:19;;;;;;;;;4.00;2.00;;;;;29.42;37.44;101623.25;5092618;27;45515;-58
2022/08/01 09:23:49;;;;;;;;;2.00;1.00;;;;;29.11;37.96;101614.00;5079499;28;45322;-59
2022/08/01 09:26:17;;;;;;;;;2.00;2.00;;;;;28.85;38.13;101619.75;5083592;27;45221;-58
2022/08/01 09:28:43;;;;;;;;;3.33;2.00;;;;;28.73;38.50;101624.75;5080763;27;45388;-58
2022/08/01 09:31:11;;;;;;;;;3.00;3.00;;;;;28.55;38.48;101614.88;5080363;27;45405;-58
2022/08/01 09:33:50;;;;;;;;;4.33;3.33;;;;;28.33;38.72;101619.22;5079386;28;45426;-58
2022/08/01 09:36:15;;;;;;;;;3.00;2.33;;;;;28.12;39.01;101617.06;5080114;27;45475;-58
2022/08/01 09:38:41;;;;;;;;;2.67;2.67;;;;;27.89;39.66;101605.94;5079538;27;72890;-57
2022/08/01 09:41:07;;;;;;;;;3.33;2.33;;;;;27.70;39.86;101610.72;5068288;27;45363;-58
2022/08/01 09:43:32;;;;;;;;;3.00;2.00;;;;;27.53;39.91;101614.47;5080962;27;45482;-58
2022/08/01 09:45:59;;;;;;;;;4.00;4.00;;;;;27.40;39.94;101606.75;5079424;28;68018;-57
2022/08/01 09:48:25;;;;;;;;;4.00;4.00;;;;;27.24;41.12;101613.03;5073442;28;46075;-57
2022/08/01 09:50:52;;;;;;;;;3.33;2.33;;;;;27.13;41.51;101625.13;5079727;27;45317;-57
2022/08/01 09:53:18;;;;;;;;;2.67;2.67;;;;;27.17;41.67;101631.94;5079619;27;45284;-57
2022/08/01 09:55:44;;;;;;;;;3.67;3.67;;;;;27.70;41.49;101616.19;5080098;28;45287;-57
2022/08/01 09:58:11;;;;;;;;;2.67;2.67;;;;;28.31;40.41;101623.16;5079422;27;46294;-57
2022/08/01 10:00:37;;;;;;;;;3.33;3.33;;;;;28.58;39.93;101621.91;5079754;27;45414;-58
2022/08/01 10:03:23;;;;;;;;;4.00;2.67;;;;;28.89;39.28;101623.88;5079369;27;45350;-58
2022/08/01 10:05:50;;;;;;;;;7.67;3.67;;;;;29.77;39.22;101629.16;5080021;27;45532;-58
2022/08/01 10:08:16;;;;;;;;;4.67;4.67;;;;;30.50;37.51;101611.16;5076449;27;47011;-58
2022/08/01 10:10:41;;;;;;;;;5.67;5.67;;;;;31.50;36.73;101606.03;5072789;28;45415;-58
2022/08/01 10:13:07;;;;;;;;;5.00;5.00;;;;;32.14;35.48;101603.41;5079514;27;45350;-59
2022/08/01 10:15:33;;;;;;;;;3.33;3.33;;;;;32.49;34.51;101603.44;5077816;28;68667;-58
2022/08/01 10:18:01;;;;;;;;;3.67;3.67;;;;;32.83;33.54;101601.75;5077110;28;68516;-58
2022/08/01 10:20:29;;;;;;;;;4.00;4.00;;;;;32.70;33.56;101610.75;5079892;27;45357;-58
2022/08/01 10:22:55;;;;;;;;;2.00;2.00;;;;;32.47;33.47;101622.06;5079890;27;45315;-59
2022/08/01 10:25:21;;;;;;;;;2.33;2.33;;;;;32.23;34.12;101623.38;5061329;28;45475;-59
2022/08/01 10:27:54;;;;;;;;;4.00;4.00;;;;;32.02;34.61;101632.50;5087210;27;45282;-58
2022/08/01 10:30:20;;;;;;;;;4.67;2.67;;;;;31.82;33.82;101628.56;5077952;28;45361;-58
2022/08/01 10:32:46;;;;;;;;;3.67;3.67;;;;;31.75;34.89;101622.16;5079347;27;45364;-58
2022/08/01 10:35:17;;;;;;;;;6.33;5.00;;;;;31.56;34.10;101618.13;5079351;28;45356;-58
2022/08/01 10:37:45;;;;;;;;;2.33;2.33;;;;;31.35;34.49;101613.47;5068702;28;46383;-58
2022/08/01 10:40:14;;;;;;;;;5.00;5.00;;;;;31.05;34.64;101623.72;5078812;27;45354;-58
2022/08/01 10:42:42;;;;;;;;;9.00;9.00;;;;;30.63;35.61;101618.72;5079934;28;45297;-58
2022/08/01 10:45:09;;;;;;;;;2.33;2.33;;;;;30.30;36.05;101620.97;5078505;27;45675;-58
2022/08/01 10:48:07;;;;;;;;;3.67;3.67;;;;;30.01;35.78;101615.25;5079580;28;46413;-59
2022/08/01 10:50:37;;;;;;;;;5.00;5.00;;;;;29.77;36.54;101616.28;5071349;28;45507;-58
2022/08/01 10:53:06;;;;;;;;;3.00;3.00;;;;;29.68;36.60;101614.66;5076740;28;45479;-59
2022/08/01 10:55:50;;;;;;;;;4.00;4.00;;;;;29.82;37.23;101615.75;5079841;28;45416;-58
2022/08/01 10:58:37;;;;;;;;;4.67;3.33;;;;;30.00;36.84;101613.53;5078877;27;45277;-59
2022/08/01 11:01:14;;;;;;;;;4.67;4.33;;;;;30.14;36.94;101614.63;5079118;27;45452;-58
2022/08/01 11:03:44;;;;;;;;;3.33;3.00;;;;;30.35;36.61;101610.25;5067748;28;45391;-58
2022/08/01 11:06:17;;;;;;;;;4.00;4.00;;;;;30.56;36.51;101605.94;5078183;27;45588;-58
2022/08/01 11:08:43;;;;;;;;;3.00;3.00;;;;;30.62;36.10;101613.41;5077807;28;45338;-58
2022/08/01 11:11:08;;;;;;;;;3.33;3.33;;;;;30.62;36.57;101621.66;5094262;27;45989;-58
2022/08/01 11:14:09;;;;;;;;;3.67;3.67;;;;;30.88;35.79;101623.06;5079376;28;45905;-58
2022/08/01 11:16:36;;;;;;;;;2.33;2.33;;;;;31.52;35.44;101619.56;5073115;28;45426;-58
2022/08/01 11:19:04;;;;;;;;;3.00;2.00;;;;;32.19;34.27;101611.94;5078359;27;45386;-58
2022/08/01 11:22:04;;;;;;;;;3.00;2.67;;;;;32.47;34.02;101616.56;5078393;28;45667;-58
2022/08/01 11:24:48;;;;;;;;;5.33;3.33;;;;;32.70;33.31;101608.00;5011084;28;45349;-59
2022/08/01 11:27:19;;;;;;;;;5.33;4.00;;;;;32.85;32.77;101607.03;5073561;27;45373;-58
2022/08/01 11:30:09;;;;;;;;;3.33;3.33;;;;;33.00;32.35;101610.47;5077936;27;46122;-58